sensor_id;sensor_type;location;lat;lon;timestamp;temperature;humidity
33139;DHT22;19501;50.948;5.316;2022-11-25T00:01:18;10.30;99.90
33139;DHT22;19501;50.948;5.316;2022-11-25T00:03:45;10.30;99.90
33139;DHT22;19501;50.948;5.316;2022-11-25T00:06:25;10.30;99.90
33139;DHT22;19501;50.948;5.316;2022-11-25T00:09:03;10.40;99.90
33139;DHT22;19501;50.948;5.316;2022-11-25T00:11:29;10.50;99.90
33139;DHT22;19501;50.948;5.316;2022-11-25T00:13:56;10.50;99.90
33139;DHT22;19501;50.948;5.316;2022-11-25T00:16:23;10.40;99.90
33139;DHT22;19501;50.948;5.316;2022-11-25T00:18:52;10.50;99.90
33139;DHT22;19501;50.948;5.316;2022-11-25T00:21:20;10.50;99.90
33139;DHT22;19501;50.948;5.316;2022-11-25T00:23:51;10.50;99.90
33139;DHT22;19501;50.948;5.316;2022-11-25T00:26:17;10.50;99.90
33139;DHT22;19501;50.948;5.316;2022-11-25T00:28:44;10.50;99.90
33139;DHT22;19501;50.948;5.316;2022-11-25T00:31:25;10.60;99.90
33139;DHT22;19501;50.948;5.316;2022-11-25T00:33:51;10.50;99.90
33139;DHT22;19501;50.948;5.316;2022-11-25T00:38:50;10.60;99.90
33139;DHT22;19501;50.948;5.316;2022-11-25T00:41:16;10.70;99.90
33139;DHT22;19501;50.948;5.316;2022-11-25T00:44:00;10.70;99.90
33139;DHT22;19501;50.948;5.316;2022-11-25T00:46:45;10.70;99.90
33139;DHT22;19501;50.948;5.316;2022-11-25T00:49:10;10.70;99.90
33139;DHT22;19501;50.948;5.316;2022-11-25T00:51:36;10.80;99.90
33139;DHT22;19501;50.948;5.316;2022-11-25T00:54:02;10.80;99.90
33139;DHT22;19501;50.948;5.316;2022-11-25T00:56:28;10.70;99.90
33139;DHT22;19501;50.948;5.316;2022-11-25T00:58:55;10.70;99.90
33139;DHT22;19501;50.948;5.316;2022-11-25T01:01:20;10.80;99.90
33139;DHT22;19501;50.948;5.316;2022-11-25T01:03:50;10.70;99.90
33139;DHT22;19501;50.948;5.316;2022-11-25T01:06:16;10.80;99.90
33139;DHT22;19501;50.948;5.316;2022-11-25T01:08:42;10.80;99.90
33139;DHT22;19501;50.948;5.316;2022-11-25T01:11:10;10.70;99.90
33139;DHT22;19501;50.948;5.316;2022-11-25T01:13:36;10.80;99.90
33139;DHT22;19501;50.948;5.316;2022-11-25T01:16:03;10.80;99.90
33139;DHT22;19501;50.948;5.316;2022-11-25T01:18:30;10.70;99.90
33139;DHT22;19501;50.948;5.316;2022-11-25T01:21:11;10.80;99.90
33139;DHT22;19501;50.948;5.316;2022-11-25T01:23:37;10.80;99.90
33139;DHT22;19501;50.948;5.316;2022-11-25T01:26:05;10.90;99.90
33139;DHT22;19501;50.948;5.316;2022-11-25T01:28:31;10.90;99.90
33139;DHT22;19501;50.948;5.316;2022-11-25T01:31:08;10.90;99.90
33139;DHT22;19501;50.948;5.316;2022-11-25T01:33:35;10.90;99.90
33139;DHT22;19501;50.948;5.316;2022-11-25T01:36:02;10.90;99.90
33139;DHT22;19501;50.948;5.316;2022-11-25T01:38:29;10.80;99.90
33139;DHT22;19501;50.948;5.316;2022-11-25T01:40:55;10.80;99.90
33139;DHT22;19501;50.948;5.316;2022-11-25T01:43:21;10.80;99.90
33139;DHT22;19501;50.948;5.316;2022-11-25T01:45:47;10.80;99.90
33139;DHT22;19501;50.948;5.316;2022-11-25T01:48:28;10.80;99.90
33139;DHT22;19501;50.948;5.316;2022-11-25T01:50:56;10.90;99.90
33139;DHT22;19501;50.948;5.316;2022-11-25T01:53:22;10.80;99.90
33139;DHT22;19501;50.948;5.316;2022-11-25T01:55:53;10.80;99.90
33139;DHT22;19501;50.948;5.316;2022-11-25T01:58:25;10.80;99.90
33139;DHT22;19501;50.948;5.316;2022-11-25T02:00:52;10.80;99.90
33139;DHT22;19501;50.948;5.316;2022-11-25T02:03:22;10.90;99.90
33139;DHT22;19501;50.948;5.316;2022-11-25T02:06:01;10.90;99.90
33139;DHT22;19501;50.948;5.316;2022-11-25T02:08:29;10.90;99.90
33139;DHT22;19501;50.948;5.316;2022-11-25T02:10:56;10.90;99.90
33139;DHT22;19501;50.948;5.316;2022-11-25T02:13:23;10.90;99.90
33139;DHT22;19501;50.948;5.316;2022-11-25T02:15:49;10.90;99.90
33139;DHT22;19501;50.948;5.316;2022-11-25T02:18:15;10.70;99.90
33139;DHT22;19501;50.948;5.316;2022-11-25T02:20:41;10.50;99.90
33139;DHT22;19501;50.948;5.316;2022-11-25T02:25:38;10.40;99.90
33139;DHT22;19501;50.948;5.316;2022-11-25T02:28:08;10.30;99.90
33139;DHT22;19501;50.948;5.316;2022-11-25T02:30:34;10.20;99.90
33139;DHT22;19501;50.948;5.316;2022-11-25T02:33:00;10.20;99.90
33139;DHT22;19501;50.948;5.316;2022-11-25T02:38:04;10.10;99.90
33139;DHT22;19501;50.948;5.316;2022-11-25T02:40:30;10.00;99.90
33139;DHT22;19501;50.948;5.316;2022-11-25T02:42:59;9.90;99.90
33139;DHT22;19501;50.948;5.316;2022-11-25T02:48:11;9.70;99.90
33139;DHT22;19501;50.948;5.316;2022-11-25T02:50:36;9.70;99.90
33139;DHT22;19501;50.948;5.316;2022-11-25T02:53:03;9.70;99.90
33139;DHT22;19501;50.948;5.316;2022-11-25T02:55:31;9.80;99.90
33139;DHT22;19501;50.948;5.316;2022-11-25T02:57:57;9.80;99.90
33139;DHT22;19501;50.948;5.316;2022-11-25T03:00:22;10.00;99.90
33139;DHT22;19501;50.948;5.316;2022-11-25T03:02:52;10.00;99.90
33139;DHT22;19501;50.948;5.316;2022-11-25T03:05:19;9.90;99.90
33139;DHT22;19501;50.948;5.316;2022-11-25T03:07:45;9.80;99.90
33139;DHT22;19501;50.948;5.316;2022-11-25T03:10:11;9.90;99.90
33139;DHT22;19501;50.948;5.316;2022-11-25T03:12:36;9.90;99.90
33139;DHT22;19501;50.948;5.316;2022-11-25T03:15:03;9.80;99.90
33139;DHT22;19501;50.948;5.316;2022-11-25T03:17:28;10.00;99.90
33139;DHT22;19501;50.948;5.316;2022-11-25T03:19:54;10.00;99.90
33139;DHT22;19501;50.948;5.316;2022-11-25T03:22:20;9.90;99.90
33139;DHT22;19501;50.948;5.316;2022-11-25T03:24:47;9.70;99.90
33139;DHT22;19501;50.948;5.316;2022-11-25T03:27:13;9.50;99.90
33139;DHT22;19501;50.948;5.316;2022-11-25T03:29:39;9.40;99.90
33139;DHT22;19501;50.948;5.316;2022-11-25T03:32:06;9.30;99.90
33139;DHT22;19501;50.948;5.316;2022-11-25T03:34:34;9.30;99.90
33139;DHT22;19501;50.948;5.316;2022-11-25T03:37:00;9.20;99.90
33139;DHT22;19501;50.948;5.316;2022-11-25T03:39:25;9.30;99.90
33139;DHT22;19501;50.948;5.316;2022-11-25T03:41:51;9.20;99.90
33139;DHT22;19501;50.948;5.316;2022-11-25T03:44:17;9.30;99.90
33139;DHT22;19501;50.948;5.316;2022-11-25T03:46:42;9.30;99.90
33139;DHT22;19501;50.948;5.316;2022-11-25T03:49:08;9.30;99.90
33139;DHT22;19501;50.948;5.316;2022-11-25T03:51:34;9.30;99.90
33139;DHT22;19501;50.948;5.316;2022-11-25T03:54:00;9.30;99.90
33139;DHT22;19501;50.948;5.316;2022-11-25T03:56:25;9.20;99.90
33139;DHT22;19501;50.948;5.316;2022-11-25T03:58:51;9.20;99.90
33139;DHT22;19501;50.948;5.316;2022-11-25T04:01:16;9.30;99.90
33139;DHT22;19501;50.948;5.316;2022-11-25T04:03:42;9.20;99.90
33139;DHT22;19501;50.948;5.316;2022-11-25T04:06:08;9.20;99.90
33139;DHT22;19501;50.948;5.316;2022-11-25T04:08:34;9.20;99.90
33139;DHT22;19501;50.948;5.316;2022-11-25T04:11:02;9.20;99.90
33139;DHT22;19501;50.948;5.316;2022-11-25T04:13:28;9.20;99.90
33139;DHT22;19501;50.948;5.316;2022-11-25T04:15:53;9.20;99.90
33139;DHT22;19501;50.948;5.316;2022-11-25T04:18:19;9.20;99.90
33139;DHT22;19501;50.948;5.316;2022-11-25T04:20:45;9.20;99.90
33139;DHT22;19501;50.948;5.316;2022-11-25T04:23:12;9.20;99.90
33139;DHT22;19501;50.948;5.316;2022-11-25T04:25:38;9.10;99.90
33139;DHT22;19501;50.948;5.316;2022-11-25T04:28:04;9.00;99.90
33139;DHT22;19501;50.948;5.316;2022-11-25T04:30:31;8.90;99.90
33139;DHT22;19501;50.948;5.316;2022-11-25T04:32:56;8.80;99.90
33139;DHT22;19501;50.948;5.316;2022-11-25T04:35:22;8.90;99.90
33139;DHT22;19501;50.948;5.316;2022-11-25T04:37:48;8.90;99.90
33139;DHT22;19501;50.948;5.316;2022-11-25T04:40:14;9.00;99.90
33139;DHT22;19501;50.948;5.316;2022-11-25T04:42:40;8.90;99.90
33139;DHT22;19501;50.948;5.316;2022-11-25T04:45:06;8.90;99.90
33139;DHT22;19501;50.948;5.316;2022-11-25T04:47:32;9.00;99.90
33139;DHT22;19501;50.948;5.316;2022-11-25T04:49:59;8.90;99.90
33139;DHT22;19501;50.948;5.316;2022-11-25T04:52:25;8.80;99.90
33139;DHT22;19501;50.948;5.316;2022-11-25T04:54:51;8.80;99.90
33139;DHT22;19501;50.948;5.316;2022-11-25T04:57:17;8.80;99.90
33139;DHT22;19501;50.948;5.316;2022-11-25T04:59:44;8.80;99.90
33139;DHT22;19501;50.948;5.316;2022-11-25T05:02:11;8.80;99.90
33139;DHT22;19501;50.948;5.316;2022-11-25T05:04:37;8.70;99.90
33139;DHT22;19501;50.948;5.316;2022-11-25T05:07:03;8.60;99.90
33139;DHT22;19501;50.948;5.316;2022-11-25T05:09:29;8.60;99.90
33139;DHT22;19501;50.948;5.316;2022-11-25T05:11:54;8.60;99.90
33139;DHT22;19501;50.948;5.316;2022-11-25T05:14:20;8.60;99.90
33139;DHT22;19501;50.948;5.316;2022-11-25T05:16:47;8.50;99.90
33139;DHT22;19501;50.948;5.316;2022-11-25T05:19:12;8.50;99.90
33139;DHT22;19501;50.948;5.316;2022-11-25T05:21:38;8.50;99.90
33139;DHT22;19501;50.948;5.316;2022-11-25T05:24:06;8.50;99.90
33139;DHT22;19501;50.948;5.316;2022-11-25T05:26:31;8.50;99.90
33139;DHT22;19501;50.948;5.316;2022-11-25T05:28:59;8.50;99.90
33139;DHT22;19501;50.948;5.316;2022-11-25T05:31:25;8.50;99.90
33139;DHT22;19501;50.948;5.316;2022-11-25T05:33:53;8.50;99.90
33139;DHT22;19501;50.948;5.316;2022-11-25T05:36:19;8.60;99.90
33139;DHT22;19501;50.948;5.316;2022-11-25T05:38:44;8.60;99.90
33139;DHT22;19501;50.948;5.316;2022-11-25T05:41:10;8.60;99.90
33139;DHT22;19501;50.948;5.316;2022-11-25T05:43:36;8.60;99.90
33139;DHT22;19501;50.948;5.316;2022-11-25T05:46:06;8.60;99.90
33139;DHT22;19501;50.948;5.316;2022-11-25T05:48:32;8.50;99.90
33139;DHT22;19501;50.948;5.316;2022-11-25T05:51:02;8.50;99.90
33139;DHT22;19501;50.948;5.316;2022-11-25T05:53:29;8.40;99.90
33139;DHT22;19501;50.948;5.316;2022-11-25T05:55:56;8.50;99.90
33139;DHT22;19501;50.948;5.316;2022-11-25T05:58:22;8.60;99.90
33139;DHT22;19501;50.948;5.316;2022-11-25T06:00:51;8.50;99.90
33139;DHT22;19501;50.948;5.316;2022-11-25T06:03:17;8.60;99.90
33139;DHT22;19501;50.948;5.316;2022-11-25T06:05:43;8.40;99.90
33139;DHT22;19501;50.948;5.316;2022-11-25T06:08:10;8.30;99.90
33139;DHT22;19501;50.948;5.316;2022-11-25T06:10:39;8.40;99.90
33139;DHT22;19501;50.948;5.316;2022-11-25T06:13:07;8.50;99.90
33139;DHT22;19501;50.948;5.316;2022-11-25T06:15:33;8.40;99.90
33139;DHT22;19501;50.948;5.316;2022-11-25T06:17:59;8.40;99.90
33139;DHT22;19501;50.948;5.316;2022-11-25T06:20:24;8.30;99.90
33139;DHT22;19501;50.948;5.316;2022-11-25T06:22:51;8.30;99.90
33139;DHT22;19501;50.948;5.316;2022-11-25T06:25:17;8.30;99.90
33139;DHT22;19501;50.948;5.316;2022-11-25T06:27:43;8.20;99.90
33139;DHT22;19501;50.948;5.316;2022-11-25T06:30:09;8.20;99.90
33139;DHT22;19501;50.948;5.316;2022-11-25T06:32:37;8.10;99.90
33139;DHT22;19501;50.948;5.316;2022-11-25T06:35:03;8.10;99.90
33139;DHT22;19501;50.948;5.316;2022-11-25T06:37:32;8.10;99.90
33139;DHT22;19501;50.948;5.316;2022-11-25T06:39:58;8.10;99.90
33139;DHT22;19501;50.948;5.316;2022-11-25T06:42:23;8.20;99.90
33139;DHT22;19501;50.948;5.316;2022-11-25T06:44:49;8.10;99.90
33139;DHT22;19501;50.948;5.316;2022-11-25T06:47:15;8.10;99.90
33139;DHT22;19501;50.948;5.316;2022-11-25T06:49:40;8.20;99.90
33139;DHT22;19501;50.948;5.316;2022-11-25T06:52:06;8.10;99.90
33139;DHT22;19501;50.948;5.316;2022-11-25T06:54:32;8.10;99.90
33139;DHT22;19501;50.948;5.316;2022-11-25T06:56:58;8.00;99.90
33139;DHT22;19501;50.948;5.316;2022-11-25T06:59:25;7.90;99.90
33139;DHT22;19501;50.948;5.316;2022-11-25T07:01:50;7.90;99.90
33139;DHT22;19501;50.948;5.316;2022-11-25T07:04:16;7.90;99.90
33139;DHT22;19501;50.948;5.316;2022-11-25T07:06:42;7.90;99.90
33139;DHT22;19501;50.948;5.316;2022-11-25T07:09:08;7.80;99.90
33139;DHT22;19501;50.948;5.316;2022-11-25T07:11:36;7.80;99.90
33139;DHT22;19501;50.948;5.316;2022-11-25T07:14:04;7.80;99.90
33139;DHT22;19501;50.948;5.316;2022-11-25T07:16:31;7.80;99.90
33139;DHT22;19501;50.948;5.316;2022-11-25T07:19:01;7.80;99.90
33139;DHT22;19501;50.948;5.316;2022-11-25T07:21:28;7.80;99.90
33139;DHT22;19501;50.948;5.316;2022-11-25T07:23:59;7.80;99.90
33139;DHT22;19501;50.948;5.316;2022-11-25T07:26:31;7.80;99.90
33139;DHT22;19501;50.948;5.316;2022-11-25T07:29:00;7.80;99.90
33139;DHT22;19501;50.948;5.316;2022-11-25T07:31:28;7.80;99.90
33139;DHT22;19501;50.948;5.316;2022-11-25T07:33:58;7.80;99.90
33139;DHT22;19501;50.948;5.316;2022-11-25T07:36:25;7.80;99.90
33139;DHT22;19501;50.948;5.316;2022-11-25T07:38:51;7.80;99.90
33139;DHT22;19501;50.948;5.316;2022-11-25T07:41:20;7.80;99.90
33139;DHT22;19501;50.948;5.316;2022-11-25T07:43:48;7.80;99.90
33139;DHT22;19501;50.948;5.316;2022-11-25T07:46:23;7.80;99.90
33139;DHT22;19501;50.948;5.316;2022-11-25T07:48:50;7.80;99.90
33139;DHT22;19501;50.948;5.316;2022-11-25T07:51:22;7.80;99.90
33139;DHT22;19501;50.948;5.316;2022-11-25T07:53:49;7.90;99.90
33139;DHT22;19501;50.948;5.316;2022-11-25T07:56:16;7.80;99.90
33139;DHT22;19501;50.948;5.316;2022-11-25T07:58:43;7.90;99.90
33139;DHT22;19501;50.948;5.316;2022-11-25T08:01:10;7.90;99.90
33139;DHT22;19501;50.948;5.316;2022-11-25T08:03:38;7.90;99.90
33139;DHT22;19501;50.948;5.316;2022-11-25T08:06:10;7.90;99.90
33139;DHT22;19501;50.948;5.316;2022-11-25T08:08:37;7.90;99.90
33139;DHT22;19501;50.948;5.316;2022-11-25T08:11:07;8.00;99.90
33139;DHT22;19501;50.948;5.316;2022-11-25T08:13:34;8.00;99.90
33139;DHT22;19501;50.948;5.316;2022-11-25T08:16:00;8.10;99.90
33139;DHT22;19501;50.948;5.316;2022-11-25T08:18:26;8.20;99.90
33139;DHT22;19501;50.948;5.316;2022-11-25T08:21:01;8.20;99.90
33139;DHT22;19501;50.948;5.316;2022-11-25T08:23:29;8.20;99.90
33139;DHT22;19501;50.948;5.316;2022-11-25T08:25:55;8.30;99.90
33139;DHT22;19501;50.948;5.316;2022-11-25T08:28:21;8.30;99.90
33139;DHT22;19501;50.948;5.316;2022-11-25T08:30:47;8.40;99.90
33139;DHT22;19501;50.948;5.316;2022-11-25T08:33:13;8.40;99.90
33139;DHT22;19501;50.948;5.316;2022-11-25T08:35:39;8.50;99.90
33139;DHT22;19501;50.948;5.316;2022-11-25T08:38:07;8.50;99.90
33139;DHT22;19501;50.948;5.316;2022-11-25T08:40:34;8.50;99.90
33139;DHT22;19501;50.948;5.316;2022-11-25T08:43:01;8.60;99.90
33139;DHT22;19501;50.948;5.316;2022-11-25T08:45:27;8.60;99.90
33139;DHT22;19501;50.948;5.316;2022-11-25T08:47:53;8.60;99.90
33139;DHT22;19501;50.948;5.316;2022-11-25T08:50:19;8.70;99.90
33139;DHT22;19501;50.948;5.316;2022-11-25T08:52:45;8.80;99.90
33139;DHT22;19501;50.948;5.316;2022-11-25T08:55:11;8.80;99.90
33139;DHT22;19501;50.948;5.316;2022-11-25T08:57:37;8.90;99.90
33139;DHT22;19501;50.948;5.316;2022-11-25T09:00:07;9.00;99.90
33139;DHT22;19501;50.948;5.316;2022-11-25T09:02:33;9.00;99.90
33139;DHT22;19501;50.948;5.316;2022-11-25T09:04:59;9.00;99.90
33139;DHT22;19501;50.948;5.316;2022-11-25T09:07:24;9.10;99.90
33139;DHT22;19501;50.948;5.316;2022-11-25T09:09:50;9.10;99.90
33139;DHT22;19501;50.948;5.316;2022-11-25T09:12:16;9.20;99.90
33139;DHT22;19501;50.948;5.316;2022-11-25T09:14:41;9.20;99.90
33139;DHT22;19501;50.948;5.316;2022-11-25T09:17:09;9.20;99.90
33139;DHT22;19501;50.948;5.316;2022-11-25T09:19:36;9.30;99.90
33139;DHT22;19501;50.948;5.316;2022-11-25T09:22:01;9.30;99.90
33139;DHT22;19501;50.948;5.316;2022-11-25T09:24:27;9.20;99.90
33139;DHT22;19501;50.948;5.316;2022-11-25T09:26:54;9.20;99.90
33139;DHT22;19501;50.948;5.316;2022-11-25T09:29:20;9.20;99.90
33139;DHT22;19501;50.948;5.316;2022-11-25T09:31:45;9.30;99.90
33139;DHT22;19501;50.948;5.316;2022-11-25T09:34:12;9.40;99.90
33139;DHT22;19501;50.948;5.316;2022-11-25T09:36:37;9.50;99.90
33139;DHT22;19501;50.948;5.316;2022-11-25T09:39:06;9.50;99.90
33139;DHT22;19501;50.948;5.316;2022-11-25T09:55:22;9.90;99.90
33139;DHT22;19501;50.948;5.316;2022-11-25T09:58:35;9.70;99.90
33139;DHT22;19501;50.948;5.316;2022-11-25T10:00:41;9.80;99.90
33139;DHT22;19501;50.948;5.316;2022-11-25T10:05:40;10.00;99.90
33139;DHT22;19501;50.948;5.316;2022-11-25T10:08:40;10.00;99.90
33139;DHT22;19501;50.948;5.316;2022-11-25T10:14:12;10.00;99.90
33139;DHT22;19501;50.948;5.316;2022-11-25T10:22:33;10.30;99.90
33139;DHT22;19501;50.948;5.316;2022-11-25T10:25:05;10.40;99.90
33139;DHT22;19501;50.948;5.316;2022-11-25T10:30:30;10.40;99.90
33139;DHT22;19501;50.948;5.316;2022-11-25T10:33:13;10.40;99.90
33139;DHT22;19501;50.948;5.316;2022-11-25T10:41:16;10.50;99.90
33139;DHT22;19501;50.948;5.316;2022-11-25T10:43:45;10.50;99.90
33139;DHT22;19501;50.948;5.316;2022-11-25T10:46:44;10.70;99.90
33139;DHT22;19501;50.948;5.316;2022-11-25T10:49:35;10.80;99.90
33139;DHT22;19501;50.948;5.316;2022-11-25T10:52:09;10.60;99.90
33139;DHT22;19501;50.948;5.316;2022-11-25T10:54:37;10.60;99.90
33139;DHT22;19501;50.948;5.316;2022-11-25T10:57:19;10.70;99.90
33139;DHT22;19501;50.948;5.316;2022-11-25T10:59:57;10.90;99.90
33139;DHT22;19501;50.948;5.316;2022-11-25T11:02:29;11.00;99.90
33139;DHT22;19501;50.948;5.316;2022-11-25T11:07:29;11.40;99.90
33139;DHT22;19501;50.948;5.316;2022-11-25T11:12:37;11.50;99.90
33139;DHT22;19501;50.948;5.316;2022-11-25T11:15:25;11.80;99.90
33139;DHT22;19501;50.948;5.316;2022-11-25T11:17:53;12.10;99.90
33139;DHT22;19501;50.948;5.316;2022-11-25T11:20:26;12.00;99.90
33139;DHT22;19501;50.948;5.316;2022-11-25T11:25:31;12.80;99.90
33139;DHT22;19501;50.948;5.316;2022-11-25T11:27:57;12.90;99.90
33139;DHT22;19501;50.948;5.316;2022-11-25T11:30:29;12.60;99.90
33139;DHT22;19501;50.948;5.316;2022-11-25T11:33:00;12.30;99.90
33139;DHT22;19501;50.948;5.316;2022-11-25T11:35:54;12.60;99.90
33139;DHT22;19501;50.948;5.316;2022-11-25T11:38:36;12.80;99.90
33139;DHT22;19501;50.948;5.316;2022-11-25T11:44:32;13.20;99.90
33139;DHT22;19501;50.948;5.316;2022-11-25T11:47:08;12.70;99.90
33139;DHT22;19501;50.948;5.316;2022-11-25T11:52:25;12.20;99.90
33139;DHT22;19501;50.948;5.316;2022-11-25T11:55:27;11.90;99.90
33139;DHT22;19501;50.948;5.316;2022-11-25T11:58:32;11.90;99.90
33139;DHT22;19501;50.948;5.316;2022-11-25T12:03:58;11.70;99.90
33139;DHT22;19501;50.948;5.316;2022-11-25T12:06:26;11.90;99.90
33139;DHT22;19501;50.948;5.316;2022-11-25T12:09:14;12.40;99.90
33139;DHT22;19501;50.948;5.316;2022-11-25T12:11:47;13.40;99.90
33139;DHT22;19501;50.948;5.316;2022-11-25T12:14:35;13.80;99.90
33139;DHT22;19501;50.948;5.316;2022-11-25T12:17:15;14.30;99.90
33139;DHT22;19501;50.948;5.316;2022-11-25T12:22:28;15.10;99.90
33139;DHT22;19501;50.948;5.316;2022-11-25T12:27:50;15.40;99.90
33139;DHT22;19501;50.948;5.316;2022-11-25T12:30:20;15.10;99.90
33139;DHT22;19501;50.948;5.316;2022-11-25T12:38:20;15.20;99.90
33139;DHT22;19501;50.948;5.316;2022-11-25T12:43:45;15.70;99.90
33139;DHT22;19501;50.948;5.316;2022-11-25T12:46:32;16.00;99.90
33139;DHT22;19501;50.948;5.316;2022-11-25T12:48:58;15.90;99.90
33139;DHT22;19501;50.948;5.316;2022-11-25T12:52:22;15.80;99.90
33139;DHT22;19501;50.948;5.316;2022-11-25T12:54:39;16.30;99.90
33139;DHT22;19501;50.948;5.316;2022-11-25T13:03:03;16.20;99.90
33139;DHT22;19501;50.948;5.316;2022-11-25T13:06:03;15.30;99.90
33139;DHT22;19501;50.948;5.316;2022-11-25T13:16:12;16.80;99.90
33139;DHT22;19501;50.948;5.316;2022-11-25T13:18:41;17.40;99.90
33139;DHT22;19501;50.948;5.316;2022-11-25T13:21:09;17.70;99.90
33139;DHT22;19501;50.948;5.316;2022-11-25T13:23:48;17.30;99.90
33139;DHT22;19501;50.948;5.316;2022-11-25T13:28:54;17.30;99.90
33139;DHT22;19501;50.948;5.316;2022-11-25T13:31:24;15.90;99.90
33139;DHT22;19501;50.948;5.316;2022-11-25T13:34:05;15.80;99.90
33139;DHT22;19501;50.948;5.316;2022-11-25T13:36:48;15.90;99.90
33139;DHT22;19501;50.948;5.316;2022-11-25T13:39:15;15.40;99.90
33139;DHT22;19501;50.948;5.316;2022-11-25T13:41:45;15.40;99.90
33139;DHT22;19501;50.948;5.316;2022-11-25T13:44:22;15.00;99.90
33139;DHT22;19501;50.948;5.316;2022-11-25T13:46:51;14.50;99.90
33139;DHT22;19501;50.948;5.316;2022-11-25T13:54:47;14.90;99.90
33139;DHT22;19501;50.948;5.316;2022-11-25T13:57:22;15.00;99.90
33139;DHT22;19501;50.948;5.316;2022-11-25T13:59:52;14.80;99.90
33139;DHT22;19501;50.948;5.316;2022-11-25T14:05:14;14.80;99.90
33139;DHT22;19501;50.948;5.316;2022-11-25T14:07:59;14.00;99.90
33139;DHT22;19501;50.948;5.316;2022-11-25T14:13:46;13.60;99.90
33139;DHT22;19501;50.948;5.316;2022-11-25T14:24:50;13.10;99.90
33139;DHT22;19501;50.948;5.316;2022-11-25T14:27:26;13.20;99.90
33139;DHT22;19501;50.948;5.316;2022-11-25T14:29:56;13.20;99.90
33139;DHT22;19501;50.948;5.316;2022-11-25T14:32:50;13.00;99.90
33139;DHT22;19501;50.948;5.316;2022-11-25T14:35:23;12.80;99.90
33139;DHT22;19501;50.948;5.316;2022-11-25T14:38:18;12.90;99.90
33139;DHT22;19501;50.948;5.316;2022-11-25T14:41:07;12.90;99.90
33139;DHT22;19501;50.948;5.316;2022-11-25T14:43:52;13.00;99.90
33139;DHT22;19501;50.948;5.316;2022-11-25T14:46:21;12.90;99.90
33139;DHT22;19501;50.948;5.316;2022-11-25T14:48:58;13.00;99.90
33139;DHT22;19501;50.948;5.316;2022-11-25T14:51:27;13.00;99.90
33139;DHT22;19501;50.948;5.316;2022-11-25T14:53:58;12.90;99.90
33139;DHT22;19501;50.948;5.316;2022-11-25T14:56:30;12.90;99.90
33139;DHT22;19501;50.948;5.316;2022-11-25T14:58:57;12.90;99.90
33139;DHT22;19501;50.948;5.316;2022-11-25T15:01:30;12.90;99.90
33139;DHT22;19501;50.948;5.316;2022-11-25T15:06:42;13.00;99.90
33139;DHT22;19501;50.948;5.316;2022-11-25T15:09:23;12.80;99.90
33139;DHT22;19501;50.948;5.316;2022-11-25T15:12:04;12.70;99.90
33139;DHT22;19501;50.948;5.316;2022-11-25T15:14:35;12.60;99.90
33139;DHT22;19501;50.948;5.316;2022-11-25T15:19:50;12.50;99.90
33139;DHT22;19501;50.948;5.316;2022-11-25T15:22:19;12.50;99.90
33139;DHT22;19501;50.948;5.316;2022-11-25T15:24:46;12.60;99.90
33139;DHT22;19501;50.948;5.316;2022-11-25T15:27:15;12.60;99.90
33139;DHT22;19501;50.948;5.316;2022-11-25T15:29:42;12.40;99.90
33139;DHT22;19501;50.948;5.316;2022-11-25T15:32:14;12.50;99.90
33139;DHT22;19501;50.948;5.316;2022-11-25T15:34:42;12.40;99.90
33139;DHT22;19501;50.948;5.316;2022-11-25T15:37:11;12.50;99.90
33139;DHT22;19501;50.948;5.316;2022-11-25T15:39:38;12.40;99.90
33139;DHT22;19501;50.948;5.316;2022-11-25T15:42:19;12.20;99.90
33139;DHT22;19501;50.948;5.316;2022-11-25T15:44:47;12.00;99.90
33139;DHT22;19501;50.948;5.316;2022-11-25T15:47:23;11.90;99.90
33139;DHT22;19501;50.948;5.316;2022-11-25T15:50:22;11.80;99.90
33139;DHT22;19501;50.948;5.316;2022-11-25T15:52:54;11.70;99.90
33139;DHT22;19501;50.948;5.316;2022-11-25T15:55:35;11.70;99.90
33139;DHT22;19501;50.948;5.316;2022-11-25T15:58:17;11.60;99.90
33139;DHT22;19501;50.948;5.316;2022-11-25T16:01:14;11.70;99.90
33139;DHT22;19501;50.948;5.316;2022-11-25T16:03:44;11.70;99.90
33139;DHT22;19501;50.948;5.316;2022-11-25T16:06:30;11.60;99.90
33139;DHT22;19501;50.948;5.316;2022-11-25T16:09:01;11.50;99.90
33139;DHT22;19501;50.948;5.316;2022-11-25T16:11:29;11.40;99.90
33139;DHT22;19501;50.948;5.316;2022-11-25T16:14:24;11.30;99.90
33139;DHT22;19501;50.948;5.316;2022-11-25T16:16:59;11.20;99.90
33139;DHT22;19501;50.948;5.316;2022-11-25T16:19:30;11.20;99.90
33139;DHT22;19501;50.948;5.316;2022-11-25T16:22:02;11.00;99.90
33139;DHT22;19501;50.948;5.316;2022-11-25T16:27:23;10.80;99.90
33139;DHT22;19501;50.948;5.316;2022-11-25T16:32:32;10.90;99.90
33139;DHT22;19501;50.948;5.316;2022-11-25T16:35:20;10.80;99.90
33139;DHT22;19501;50.948;5.316;2022-11-25T16:37:47;10.90;99.90
33139;DHT22;19501;50.948;5.316;2022-11-25T16:40:19;11.00;99.90
33139;DHT22;19501;50.948;5.316;2022-11-25T16:42:46;10.80;99.90
33139;DHT22;19501;50.948;5.316;2022-11-25T16:45:25;10.80;99.90
33139;DHT22;19501;50.948;5.316;2022-11-25T16:47:56;10.70;99.90
33139;DHT22;19501;50.948;5.316;2022-11-25T16:50:22;10.70;99.90
33139;DHT22;19501;50.948;5.316;2022-11-25T16:52:49;10.60;99.90
33139;DHT22;19501;50.948;5.316;2022-11-25T16:55:15;10.50;99.90
33139;DHT22;19501;50.948;5.316;2022-11-25T16:57:42;10.60;99.90
33139;DHT22;19501;50.948;5.316;2022-11-25T17:00:14;10.60;99.90
33139;DHT22;19501;50.948;5.316;2022-11-25T17:02:41;10.60;99.90
33139;DHT22;19501;50.948;5.316;2022-11-25T17:05:17;10.70;99.90
33139;DHT22;19501;50.948;5.316;2022-11-25T17:07:43;10.90;99.90
33139;DHT22;19501;50.948;5.316;2022-11-25T17:10:09;10.90;99.90
33139;DHT22;19501;50.948;5.316;2022-11-25T17:12:36;10.90;99.90
33139;DHT22;19501;50.948;5.316;2022-11-25T17:15:05;10.90;99.90
33139;DHT22;19501;50.948;5.316;2022-11-25T17:17:32;10.80;99.90
33139;DHT22;19501;50.948;5.316;2022-11-25T17:19:58;10.90;99.90
33139;DHT22;19501;50.948;5.316;2022-11-25T17:22:26;10.80;99.90
33139;DHT22;19501;50.948;5.316;2022-11-25T17:24:52;10.70;99.90
33139;DHT22;19501;50.948;5.316;2022-11-25T17:29:48;10.90;99.90
33139;DHT22;19501;50.948;5.316;2022-11-25T17:32:16;10.80;99.90
33139;DHT22;19501;50.948;5.316;2022-11-25T17:34:42;10.90;99.90
33139;DHT22;19501;50.948;5.316;2022-11-25T17:37:22;10.90;99.90
33139;DHT22;19501;50.948;5.316;2022-11-25T17:39:49;10.80;99.90
33139;DHT22;19501;50.948;5.316;2022-11-25T17:42:18;10.70;99.90
33139;DHT22;19501;50.948;5.316;2022-11-25T17:44:47;10.70;99.90
33139;DHT22;19501;50.948;5.316;2022-11-25T17:47:15;10.60;99.90
33139;DHT22;19501;50.948;5.316;2022-11-25T17:49:42;10.70;99.90
33139;DHT22;19501;50.948;5.316;2022-11-25T17:52:10;10.60;99.90
33139;DHT22;19501;50.948;5.316;2022-11-25T17:54:37;10.50;99.90
33139;DHT22;19501;50.948;5.316;2022-11-25T17:57:04;10.60;99.90
33139;DHT22;19501;50.948;5.316;2022-11-25T17:59:32;10.70;99.90